Terminal Aerodrome Forecast
Issued by NWS

Current Version | Previous Version | Text Only | Print | Product List | Glossary Off
Versions: 1 2 3 4 5 6 7 8 9 10 11 12 13 14 15 16 17 18 19 20 21

000
FTUS41 KRNK 232106 AAA
TAFLWB
TAF AMD
KLWB 232106Z 2321/2418 31008KT P6SM OVC020
     FM240000 VRB03KT P6SM BKN020
     FM240200 00000KT P6SM SKC
     FM240700 00000KT 6SM BR BKN250
     FM241300 29003KT P6SM OVC150=

USA.gov is the U.S. government's official web portal to all federal, state and local government web resources and services.